メインページ
METAR-TAF:

METAR-TAF

空港 :

プリンス・サイード・イブラヒーム国際空港

モロニ, コモロ

緯度: 11-32S, 経度: 043-16E, 海抜: 29m

METAR: 見つかりません

時間: 03:46 (00:46 UTC)

予報

当レポートは7時間46分前の17:00(UTC)に作成
予報は23日の 18時(UTC)から 24日の 24時(UTC)まで有効
東/南東の風 6kt
視程10km以上
高度2000ftの雲はほとんどない
24日の 05時(UTC)から 24日の 07時(UTC)まで徐々に
南/南西の風 14kt
24日の 15時(UTC)から 24日の 17時(UTC)まで徐々に
東/南東の風 5kt

TAF: FMCH 231700Z 2318/2424 12006KT 9999 FEW020 BECMG 2405/2407 21014KT BECMG 2415/2417 11005KT

4,000以上の空港の気象観測と天気予報(METAR報とTAF報)

利用可能な観測所は地図上に黄色い丸と赤い丸で示す。

丸の上にカーソルを重ねると観測所名を参照できる。

次にクリックすると気象観測と天気予報を参照できる。

マップの切り替え:黒色「×」印の緑ボタンをクリックして拡大、「-」印の緑ボタンをクリックして縮小、緑色の三角印をクリックして隣りの地図に切り替え


METAR-TAF: